createdAt,value
2022-11-29T00:00:06.826Z,29.65
2022-11-29T00:02:46.942Z,21.75
2022-11-29T00:05:19.849Z,19.83
2022-11-29T00:07:52.687Z,27.20
2022-11-29T00:10:25.503Z,23.45
2022-11-29T00:12:58.286Z,30.42
2022-11-29T00:15:31.131Z,22.30
2022-11-29T00:18:05.619Z,34.53
2022-11-29T00:20:40.118Z,34.15
2022-11-29T00:23:12.950Z,24.73
2022-11-29T00:25:45.800Z,40.65
2022-11-29T00:28:18.636Z,23.10
2022-11-29T00:30:51.484Z,29.30
2022-11-29T00:33:25.782Z,38.30
2022-11-29T00:36:02.229Z,46.83
2022-11-29T00:38:35.076Z,24.35
2022-11-29T00:41:08.308Z,29.38
2022-11-29T00:43:41.212Z,24.83
2022-11-29T00:46:14.122Z,33.47
2022-11-29T00:48:48.411Z,21.63
2022-11-29T00:51:21.174Z,25.05
2022-11-29T00:53:53.978Z,29.70
2022-11-29T00:56:26.808Z,25.55
2022-11-29T00:58:59.620Z,31.52
2022-11-29T01:01:32.422Z,35.00
2022-11-29T01:04:06.699Z,19.98
2022-11-29T01:06:39.600Z,18.33
2022-11-29T01:09:12.813Z,26.98
2022-11-29T01:11:45.739Z,21.20
2022-11-29T01:14:18.563Z,30.13
2022-11-29T01:16:51.419Z,17.58
2022-11-29T01:19:25.872Z,23.45
2022-11-29T01:21:58.715Z,22.48
2022-11-29T01:24:31.785Z,23.30
2022-11-29T01:27:07.067Z,17.20
2022-11-29T01:29:39.996Z,18.23
2022-11-29T01:32:13.326Z,18.98
2022-11-29T01:34:47.562Z,15.13
2022-11-29T01:37:20.408Z,21.70
2022-11-29T01:39:53.183Z,19.80
2022-11-29T01:42:26.082Z,18.95
2022-11-29T01:45:15.536Z,22.67
2022-11-29T01:47:51.430Z,16.95
2022-11-29T01:50:26.006Z,16.02
2022-11-29T01:52:59.376Z,15.60
2022-11-29T01:55:33.033Z,22.45
2022-11-29T01:58:08.972Z,17.60
2022-11-29T02:00:41.960Z,23.73
2022-11-29T02:03:16.756Z,22.33
2022-11-29T02:05:53.009Z,30.55
2022-11-29T02:08:30.964Z,23.40
2022-11-29T02:11:33.183Z,23.40
2022-11-29T02:14:19.473Z,19.52
2022-11-29T02:17:00.440Z,20.58
2022-11-29T02:20:27.756Z,25.55
2022-11-29T02:23:14.021Z,25.27
2022-11-29T02:26:01.506Z,27.50
2022-11-29T02:29:03.051Z,23.27
2022-11-29T02:31:59.771Z,27.15
2022-11-29T02:34:59.272Z,27.60
2022-11-29T02:38:00.103Z,22.90
2022-11-29T02:40:52.548Z,35.55
2022-11-29T02:43:41.155Z,33.03
2022-11-29T02:46:27.709Z,28.38
2022-11-29T02:49:10.910Z,21.60
2022-11-29T02:51:53.376Z,28.20
2022-11-29T02:54:33.306Z,19.85
2022-11-29T02:57:20.403Z,24.90
2022-11-29T03:00:02.356Z,26.05
2022-11-29T03:02:41.628Z,22.67
2022-11-29T03:05:23.074Z,26.30
2022-11-29T03:08:06.700Z,24.38
2022-11-29T03:10:51.445Z,20.50
2022-11-29T03:13:40.858Z,26.67
2022-11-29T03:16:25.743Z,25.75
2022-11-29T03:19:06.850Z,24.48
2022-11-29T03:21:46.803Z,31.10
2022-11-29T03:24:27.357Z,28.45
2022-11-29T03:27:05.436Z,31.90
2022-11-29T03:29:45.654Z,29.77
2022-11-29T03:32:27.391Z,31.88
2022-11-29T03:35:07.543Z,24.20
2022-11-29T03:37:49.339Z,29.83
2022-11-29T03:40:30.449Z,23.42
2022-11-29T03:43:08.652Z,23.77
2022-11-29T03:45:49.530Z,26.83
2022-11-29T03:48:30.341Z,32.30
2022-11-29T03:51:08.375Z,23.70
2022-11-29T03:53:48.212Z,41.60
2022-11-29T03:56:29.991Z,26.42
2022-11-29T03:59:13.194Z,27.70
2022-11-29T04:02:17.399Z,34.67
2022-11-29T04:05:13.556Z,35.67
2022-11-29T04:08:00.865Z,33.63
2022-11-29T04:10:54.115Z,35.42
2022-11-29T04:13:52.696Z,34.33
2022-11-29T04:16:47.006Z,18.42
2022-11-29T04:19:50.701Z,32.72
2022-11-29T04:22:54.460Z,28.45
2022-11-29T04:26:04.284Z,33.00
2022-11-29T04:29:06.319Z,36.85
2022-11-29T04:31:53.222Z,32.60
2022-11-29T04:34:47.681Z,35.55
2022-11-29T04:37:38.671Z,38.13
2022-11-29T04:40:27.260Z,33.60
2022-11-29T04:43:18.504Z,33.58
2022-11-29T04:46:24.776Z,33.35
2022-11-29T04:49:20.476Z,35.05
2022-11-29T04:52:09.560Z,31.92
2022-11-29T04:54:50.062Z,30.48
2022-11-29T04:57:33.757Z,36.83
2022-11-29T05:00:10.062Z,29.98
2022-11-29T05:02:55.555Z,28.17
2022-11-29T05:05:36.009Z,28.17
2022-11-29T05:08:24.890Z,27.42
2022-11-29T05:11:06.664Z,26.98
2022-11-29T05:13:46.685Z,32.90
2022-11-29T05:16:43.976Z,19.35
2022-11-29T05:19:44.528Z,29.08
2022-11-29T05:22:32.519Z,30.38
2022-11-29T05:25:31.709Z,30.30
2022-11-29T05:28:10.622Z,40.03
2022-11-29T05:31:12.513Z,33.85
2022-11-29T05:34:06.724Z,35.10
2022-11-29T05:36:45.156Z,27.17
2022-11-29T05:39:35.133Z,32.58
2022-11-29T05:42:26.913Z,37.33
2022-11-29T05:45:05.635Z,26.88
2022-11-29T05:47:45.072Z,33.40
2022-11-29T05:50:25.153Z,33.72
2022-11-29T05:53:12.513Z,39.30
2022-11-29T05:55:55.807Z,34.70
2022-11-29T05:58:34.890Z,19.92
2022-11-29T06:01:18.518Z,27.83
2022-11-29T06:04:04.557Z,33.88
2022-11-29T06:06:44.288Z,34.83
2022-11-29T06:09:24.886Z,35.20
2022-11-29T06:12:05.169Z,17.52
2022-11-29T06:15:01.929Z,21.48
2022-11-29T06:17:48.639Z,26.02
2022-11-29T06:20:35.967Z,33.72
2022-11-29T06:23:28.866Z,30.02
2022-11-29T06:26:16.991Z,39.40
2022-11-29T06:29:01.522Z,30.45
2022-11-29T06:31:40.251Z,23.77
2022-11-29T06:34:26.241Z,30.58
2022-11-29T06:37:09.900Z,38.35
2022-11-29T06:39:43.261Z,39.28
2022-11-29T06:42:17.495Z,32.00
2022-11-29T06:44:50.809Z,29.30
2022-11-29T06:47:29.031Z,32.95
2022-11-29T06:50:05.293Z,32.63
2022-11-29T06:52:45.048Z,30.25
2022-11-29T06:55:25.272Z,36.45
2022-11-29T06:58:08.236Z,28.65
2022-11-29T07:00:51.435Z,31.38
2022-11-29T07:03:50.492Z,36.70
2022-11-29T07:06:27.020Z,33.70
2022-11-29T07:09:02.814Z,30.13
2022-11-29T07:11:36.223Z,38.30
2022-11-29T07:14:11.653Z,30.05
2022-11-29T07:16:57.647Z,31.48
2022-11-29T07:19:39.728Z,28.80
2022-11-29T07:22:30.744Z,33.22
2022-11-29T07:25:17.579Z,31.10
2022-11-29T07:28:02.412Z,32.30
2022-11-29T07:30:51.071Z,26.50
2022-11-29T07:33:31.583Z,31.00
2022-11-29T07:36:15.331Z,31.77
2022-11-29T07:39:00.524Z,32.05
2022-11-29T07:41:41.698Z,29.30
2022-11-29T07:44:27.249Z,26.10
2022-11-29T07:47:01.438Z,37.28
2022-11-29T07:49:34.385Z,39.92
2022-11-29T07:52:07.116Z,28.15
2022-11-29T07:54:40.975Z,32.55
2022-11-29T07:57:13.750Z,27.50
2022-11-29T07:59:46.752Z,34.63
2022-11-29T08:02:29.092Z,26.85
2022-11-29T08:05:02.023Z,27.88
2022-11-29T08:07:35.610Z,33.80
2022-11-29T08:10:10.858Z,28.58
2022-11-29T08:12:44.948Z,30.73
2022-11-29T08:15:18.878Z,25.88
2022-11-29T08:17:54.162Z,37.63
2022-11-29T08:20:27.007Z,44.67
2022-11-29T08:23:00.833Z,29.92
2022-11-29T08:25:33.701Z,38.13
2022-11-29T08:28:06.962Z,34.17
2022-11-29T08:30:39.809Z,35.50
2022-11-29T08:33:14.007Z,39.42
2022-11-29T08:35:46.907Z,27.25
2022-11-29T08:38:19.679Z,38.00
2022-11-29T08:40:52.521Z,33.10
2022-11-29T08:43:25.485Z,37.20
2022-11-29T08:45:58.889Z,35.30
2022-11-29T08:48:33.806Z,37.92
2022-11-29T08:51:07.417Z,33.20
2022-11-29T08:53:41.972Z,38.53
2022-11-29T08:57:04.269Z,36.38
2022-11-29T08:59:11.274Z,39.83
2022-11-29T09:01:44.104Z,37.83
2022-11-29T09:04:18.275Z,35.38
2022-11-29T09:06:51.020Z,37.63
2022-11-29T09:09:23.740Z,40.13
2022-11-29T09:11:56.798Z,37.92
2022-11-29T09:14:29.579Z,39.30
2022-11-29T09:17:02.665Z,43.80
2022-11-29T09:19:36.871Z,39.65
2022-11-29T09:22:09.705Z,35.92
2022-11-29T09:24:42.764Z,43.72
2022-11-29T09:27:15.774Z,36.97
2022-11-29T09:29:48.616Z,37.78
2022-11-29T09:32:21.439Z,42.25
2022-11-29T09:34:55.580Z,42.10
2022-11-29T09:37:28.454Z,40.77
2022-11-29T09:40:01.264Z,40.78
2022-11-29T09:42:48.974Z,44.45
2022-11-29T09:45:30.219Z,50.65
2022-11-29T09:48:35.871Z,39.45
2022-11-29T09:51:24.037Z,50.70
2022-11-29T09:54:14.251Z,47.90
2022-11-29T09:56:50.134Z,46.22
2022-11-29T09:59:28.834Z,41.50
2022-11-29T10:02:10.512Z,43.22
2022-11-29T10:04:50.208Z,38.53
2022-11-29T10:07:31.432Z,35.97
2022-11-29T10:10:10.096Z,34.08
2022-11-29T10:12:49.368Z,31.75
2022-11-29T10:15:24.814Z,35.00
2022-11-29T10:18:02.934Z,30.83
2022-11-29T10:20:43.541Z,27.95
2022-11-29T10:23:24.928Z,34.58
2022-11-29T10:25:59.300Z,38.58
2022-11-29T10:28:34.580Z,40.00
2022-11-29T10:31:20.134Z,39.55
2022-11-29T10:33:53.414Z,42.00
2022-11-29T10:36:32.920Z,43.42
2022-11-29T10:39:14.621Z,41.13
2022-11-29T10:41:52.606Z,46.90
2022-11-29T10:44:26.352Z,45.95
2022-11-29T10:47:07.837Z,52.28
2022-11-29T10:49:43.460Z,41.20
2022-11-29T10:52:19.147Z,40.20
2022-11-29T10:54:57.182Z,33.10
2022-11-29T10:57:30.096Z,43.45
2022-11-29T11:00:07.686Z,36.83
2022-11-29T11:02:41.600Z,34.28
2022-11-29T11:05:18.823Z,42.08
2022-11-29T11:07:57.934Z,35.10
2022-11-29T11:10:32.603Z,36.45
2022-11-29T11:13:08.623Z,32.65
2022-11-29T11:15:41.696Z,30.52
2022-11-29T11:18:22.010Z,35.30
2022-11-29T11:20:57.584Z,34.88
2022-11-29T11:23:33.292Z,35.33
2022-11-29T11:26:09.892Z,36.63
2022-11-29T11:28:49.405Z,32.67
2022-11-29T11:31:32.371Z,31.58
2022-11-29T11:34:29.445Z,31.38
2022-11-29T11:37:21.518Z,35.00
2022-11-29T11:39:57.084Z,37.88
2022-11-29T11:42:38.553Z,33.97
2022-11-29T11:45:32.804Z,32.88
2022-11-29T11:48:14.158Z,28.05
2022-11-29T11:50:52.276Z,33.45
2022-11-29T11:53:28.350Z,34.17
2022-11-29T11:56:03.854Z,34.30
2022-11-29T11:58:40.109Z,36.08
2022-11-29T12:01:24.129Z,35.65
2022-11-29T12:04:02.616Z,42.30
2022-11-29T12:06:44.610Z,44.30
2022-11-29T12:09:26.196Z,32.90
2022-11-29T12:12:09.763Z,39.67
2022-11-29T12:14:54.189Z,44.97
2022-11-29T12:17:34.237Z,46.20
2022-11-29T12:20:23.094Z,42.08
2022-11-29T12:23:10.257Z,40.17
2022-11-29T12:25:48.828Z,42.80
2022-11-29T12:28:25.300Z,43.45
2022-11-29T12:31:11.624Z,37.80
2022-11-29T12:33:50.655Z,36.97
2022-11-29T12:36:34.538Z,45.03
2022-11-29T12:39:20.016Z,37.92
2022-11-29T12:41:58.087Z,51.45
2022-11-29T12:44:46.664Z,42.22
2022-11-29T12:47:38.393Z,46.03
2022-11-29T12:50:27.350Z,49.40
2022-11-29T12:53:14.990Z,41.17
2022-11-29T12:55:53.971Z,48.25
2022-11-29T12:58:33.973Z,45.20
2022-11-29T13:01:16.603Z,50.50
2022-11-29T13:03:59.891Z,39.47
2022-11-29T13:06:42.437Z,45.03
2022-11-29T13:09:40.746Z,45.10
2022-11-29T13:12:21.451Z,36.90
2022-11-29T13:15:02.631Z,41.08
2022-11-29T13:17:43.157Z,38.25
2022-11-29T13:20:31.520Z,42.63
2022-11-29T13:23:15.144Z,42.70
2022-11-29T13:25:51.803Z,30.85
2022-11-29T13:28:28.488Z,31.25
2022-11-29T13:31:04.237Z,36.78
2022-11-29T13:33:48.330Z,33.83
2022-11-29T13:36:32.432Z,37.03
2022-11-29T13:39:16.954Z,31.98
2022-11-29T13:41:56.216Z,34.00
2022-11-29T13:44:36.582Z,37.25
2022-11-29T13:47:12.006Z,32.95
2022-11-29T13:49:54.357Z,28.27
2022-11-29T13:52:41.357Z,32.28
2022-11-29T13:55:28.955Z,31.17
2022-11-29T13:58:22.243Z,31.45
2022-11-29T14:04:07.030Z,32.85
2022-11-29T14:10:03.225Z,32.70
2022-11-29T14:12:40.829Z,33.70
2022-11-29T14:15:22.480Z,31.23
2022-11-29T14:17:57.837Z,35.13
2022-11-29T14:20:56.872Z,29.65
2022-11-29T14:23:38.331Z,37.22
2022-11-29T14:26:31.344Z,35.10
2022-11-29T14:29:42.403Z,31.25
2022-11-29T14:32:23.504Z,37.55
2022-11-29T14:35:02.170Z,35.15
2022-11-29T14:37:54.228Z,34.35
2022-11-29T14:40:33.079Z,29.13
2022-11-29T14:43:20.866Z,30.25
2022-11-29T14:46:09.253Z,33.35
2022-11-29T14:48:46.781Z,38.30
2022-11-29T14:51:20.769Z,42.13
2022-11-29T14:54:06.424Z,30.85
2022-11-29T14:56:42.789Z,36.50
2022-11-29T14:59:46.342Z,36.17
2022-11-29T15:02:28.519Z,36.05
2022-11-29T15:05:14.356Z,40.53
2022-11-29T15:07:53.996Z,37.78
2022-11-29T15:10:31.779Z,33.55
2022-11-29T15:13:05.701Z,37.03
2022-11-29T15:16:10.361Z,41.47
2022-11-29T15:19:01.950Z,39.58
2022-11-29T15:21:46.096Z,49.40
2022-11-29T15:24:19.839Z,38.83
2022-11-29T15:26:58.559Z,38.10
2022-11-29T15:29:32.310Z,39.67
2022-11-29T15:32:07.956Z,41.28
2022-11-29T15:34:45.100Z,37.35
2022-11-29T15:37:24.487Z,37.75
2022-11-29T15:40:05.880Z,40.15
2022-11-29T15:42:41.475Z,46.63
2022-11-29T15:45:32.992Z,31.88
2022-11-29T15:48:17.522Z,53.20
2022-11-29T15:51:03.508Z,36.73
2022-11-29T15:53:41.336Z,38.42
2022-11-29T15:56:18.581Z,42.22
2022-11-29T15:58:57.958Z,39.63
2022-11-29T16:01:31.005Z,40.67
2022-11-29T16:04:05.764Z,41.45
2022-11-29T16:06:42.352Z,38.72
2022-11-29T16:09:19.687Z,32.25
2022-11-29T16:11:52.755Z,35.05
2022-11-29T16:14:28.039Z,34.25
2022-11-29T16:17:03.423Z,44.70
2022-11-29T16:19:39.214Z,41.50
2022-11-29T16:22:18.095Z,33.88
2022-11-29T16:25:01.497Z,32.75
2022-11-29T16:27:36.319Z,32.50
2022-11-29T16:30:21.472Z,29.73
2022-11-29T16:32:56.113Z,46.25
2022-11-29T16:35:33.642Z,32.60
2022-11-29T16:38:07.085Z,37.95
2022-11-29T16:40:39.927Z,28.10
2022-11-29T16:43:23.806Z,28.88
2022-11-29T16:46:29.962Z,34.95
2022-11-29T16:51:47.989Z,30.70
2022-11-29T16:54:24.239Z,32.72
2022-11-29T16:56:58.390Z,34.97
2022-11-29T16:59:32.598Z,28.60
2022-11-29T17:02:11.435Z,33.17
2022-11-29T17:04:45.648Z,34.88
2022-11-29T17:07:26.705Z,36.43
2022-11-29T17:10:00.792Z,42.25
2022-11-29T17:12:33.541Z,34.33
2022-11-29T17:15:07.260Z,32.40
2022-11-29T17:17:42.374Z,33.90
2022-11-29T17:20:15.497Z,30.20
2022-11-29T17:22:49.665Z,30.85
2022-11-29T17:25:22.457Z,35.67
2022-11-29T17:27:55.788Z,34.67
2022-11-29T17:30:29.916Z,28.65
2022-11-29T17:33:02.777Z,30.27
2022-11-29T17:35:36.004Z,33.53
2022-11-29T17:38:10.159Z,37.60
2022-11-29T17:40:42.956Z,28.40
2022-11-29T17:43:15.936Z,29.73
2022-11-29T17:45:48.768Z,27.25
2022-11-29T17:48:21.767Z,29.42
2022-11-29T17:51:00.319Z,27.30
2022-11-29T17:53:35.444Z,30.48
2022-11-29T17:56:10.302Z,33.22
2022-11-29T17:58:43.672Z,31.33
2022-11-29T18:01:18.452Z,32.80
2022-11-29T18:03:53.474Z,27.67
2022-11-29T18:06:28.837Z,38.00
2022-11-29T18:09:04.373Z,40.03
2022-11-29T18:11:46.836Z,36.50
2022-11-29T18:14:24.035Z,40.80
2022-11-29T18:16:57.127Z,39.95
2022-11-29T18:19:31.406Z,33.90
2022-11-29T18:22:04.245Z,40.95
2022-11-29T18:24:41.153Z,54.78
2022-11-29T18:27:13.973Z,53.03
2022-11-29T18:29:46.993Z,42.78
2022-11-29T18:32:19.943Z,52.78
2022-11-29T18:34:52.931Z,51.67
2022-11-29T18:37:57.173Z,60.15
2022-11-29T18:40:20.265Z,42.22
2022-11-29T18:42:53.314Z,36.15
2022-11-29T18:45:26.107Z,44.05
2022-11-29T18:47:59.716Z,39.60
2022-11-29T18:50:33.043Z,40.00
2022-11-29T18:53:05.837Z,37.83
2022-11-29T18:55:40.003Z,37.20
2022-11-29T18:58:13.023Z,38.33
2022-11-29T19:00:45.955Z,41.60
2022-11-29T19:03:19.228Z,42.95
2022-11-29T19:05:53.200Z,46.10
2022-11-29T19:08:26.116Z,48.65
2022-11-29T19:11:00.609Z,46.00
2022-11-29T19:13:33.947Z,48.63
2022-11-29T19:16:13.020Z,43.72
2022-11-29T19:18:46.781Z,44.25
2022-11-29T19:21:20.868Z,43.75
2022-11-29T19:23:55.630Z,42.67
2022-11-29T19:26:31.612Z,41.78
2022-11-29T19:29:04.430Z,36.28
2022-11-29T19:31:39.188Z,38.53
2022-11-29T19:34:12.247Z,41.00
2022-11-29T19:36:45.579Z,38.90
2022-11-29T19:39:18.671Z,39.60
2022-11-29T19:41:52.842Z,39.08
2022-11-29T19:44:29.923Z,40.53
2022-11-29T19:47:03.163Z,44.03
2022-11-29T19:49:36.834Z,46.67
2022-11-29T19:52:09.587Z,48.55
2022-11-29T19:54:42.793Z,36.95
2022-11-29T19:57:19.284Z,39.88
2022-11-29T19:59:52.080Z,35.30
2022-11-29T20:02:25.087Z,41.78
2022-11-29T20:04:58.093Z,46.17
2022-11-29T20:07:31.227Z,48.53
2022-11-29T20:10:04.706Z,45.50
2022-11-29T20:12:38.871Z,48.15
2022-11-29T20:15:11.835Z,53.80
2022-11-29T20:17:45.144Z,43.58
2022-11-29T20:20:18.165Z,41.08
2022-11-29T20:22:53.317Z,43.83
2022-11-29T20:25:26.388Z,49.17
2022-11-29T20:28:00.720Z,52.38
2022-11-29T20:30:35.081Z,43.20
2022-11-29T20:33:08.027Z,42.03
2022-11-29T20:35:41.250Z,52.05
2022-11-29T20:38:24.836Z,44.92
2022-11-29T20:41:03.158Z,42.33
2022-11-29T20:43:45.445Z,46.85
2022-11-29T20:46:18.656Z,51.70
2022-11-29T20:48:51.938Z,53.63
2022-11-29T20:51:29.421Z,46.75
2022-11-29T20:54:04.614Z,46.60
2022-11-29T20:56:37.408Z,50.40
2022-11-29T20:59:11.515Z,46.72
2022-11-29T21:01:44.317Z,53.13
2022-11-29T21:04:22.869Z,40.72
2022-11-29T21:06:56.709Z,44.40
2022-11-29T21:09:29.706Z,59.95
2022-11-29T21:12:02.757Z,56.30
2022-11-29T21:14:37.710Z,45.88
2022-11-29T21:19:44.297Z,51.20
2022-11-29T21:22:24.538Z,53.35
2022-11-29T21:25:09.641Z,56.88
2022-11-29T21:27:43.065Z,51.10
2022-11-29T21:30:20.276Z,48.88
2022-11-29T21:32:53.769Z,47.65
2022-11-29T21:35:26.540Z,39.75
2022-11-29T21:38:02.021Z,47.15
2022-11-29T21:40:34.893Z,55.28
2022-11-29T21:43:07.671Z,58.95
2022-11-29T21:45:41.894Z,54.65
2022-11-29T21:48:28.598Z,50.35
2022-11-29T21:51:01.417Z,52.92
2022-11-29T21:53:34.601Z,57.25
2022-11-29T21:56:09.822Z,50.35
2022-11-29T21:58:42.709Z,55.15
2022-11-29T22:01:19.147Z,53.10
2022-11-29T22:03:54.035Z,55.05
2022-11-29T22:06:29.086Z,49.63
2022-11-29T22:09:02.222Z,50.97
2022-11-29T22:11:35.535Z,54.83
2022-11-29T22:14:17.912Z,47.55
2022-11-29T22:16:53.977Z,53.95
2022-11-29T22:19:28.518Z,57.75
2022-11-29T22:22:03.529Z,55.63
2022-11-29T22:24:37.935Z,58.70
2022-11-29T22:27:10.644Z,59.85
2022-11-29T22:29:43.416Z,50.67
2022-11-29T22:32:18.652Z,43.38
2022-11-29T22:34:51.663Z,58.90
2022-11-29T22:37:24.575Z,59.55
2022-11-29T22:39:57.531Z,57.28
2022-11-29T22:42:30.303Z,65.05
2022-11-29T22:45:04.074Z,52.92
2022-11-29T22:47:38.584Z,66.72
2022-11-29T22:50:12.368Z,62.72
2022-11-29T22:52:45.132Z,57.67
2022-11-29T22:55:17.929Z,65.40
2022-11-29T22:57:50.666Z,54.58
2022-11-29T23:00:23.442Z,65.78
2022-11-29T23:03:00.109Z,54.17
2022-11-29T23:05:34.111Z,59.50
2022-11-29T23:08:07.032Z,48.08
2022-11-29T23:10:39.819Z,44.50
2022-11-29T23:13:12.643Z,50.08
2022-11-29T23:15:45.353Z,51.03
2022-11-29T23:18:19.999Z,52.60
2022-11-29T23:20:52.941Z,46.35
2022-11-29T23:23:28.680Z,50.30
2022-11-29T23:26:02.093Z,49.28
2022-11-29T23:28:36.208Z,48.67
2022-11-29T23:31:08.992Z,51.53
2022-11-29T23:33:43.205Z,51.35
2022-11-29T23:36:17.001Z,42.90
2022-11-29T23:38:49.854Z,45.55
2022-11-29T23:41:22.670Z,47.97
2022-11-29T23:43:55.587Z,52.65
2022-11-29T23:46:28.373Z,48.95
2022-11-29T23:49:02.454Z,56.25
2022-11-29T23:51:35.223Z,43.97
2022-11-29T23:54:08.080Z,29.10
2022-11-29T23:56:40.886Z,32.65
2022-11-29T23:59:13.911Z,31.77
